createdAt,value
2023-02-06T00:00:48.826Z,24.77
2023-02-06T00:03:16.232Z,25.53
2023-02-06T00:05:43.745Z,26.23
2023-02-06T00:08:11.227Z,27.73
2023-02-06T00:10:38.634Z,27.53
2023-02-06T00:13:06.057Z,27.10
2023-02-06T00:15:34.021Z,24.67
2023-02-06T00:18:01.588Z,25.03
2023-02-06T00:20:28.954Z,24.67
2023-02-06T00:22:56.270Z,27.17
2023-02-06T00:25:23.599Z,26.17
2023-02-06T00:27:51.090Z,25.80
2023-02-06T00:30:18.530Z,22.27
2023-02-06T00:32:47.249Z,22.73
2023-02-06T00:35:14.723Z,21.73
2023-02-06T00:37:42.114Z,19.80
2023-02-06T00:40:09.927Z,20.03
2023-02-06T00:42:37.310Z,20.10
2023-02-06T00:45:04.946Z,20.90
2023-02-06T00:47:32.394Z,20.00
2023-02-06T00:49:59.760Z,16.57
2023-02-06T00:52:27.095Z,18.03
2023-02-06T00:54:54.468Z,21.07
2023-02-06T00:57:21.819Z,20.67
2023-02-06T00:59:49.179Z,21.07
2023-02-06T01:02:16.532Z,19.70
2023-02-06T01:04:43.939Z,22.43
2023-02-06T01:07:11.258Z,22.80
2023-02-06T01:09:38.636Z,22.73
2023-02-06T01:12:06.141Z,19.83
2023-02-06T01:14:33.495Z,20.60
2023-02-06T01:17:00.874Z,19.90
2023-02-06T01:19:28.246Z,20.27
2023-02-06T01:21:55.625Z,20.97
2023-02-06T01:24:22.991Z,19.67
2023-02-06T01:26:50.389Z,18.03
2023-02-06T01:29:18.466Z,21.23
2023-02-06T01:31:45.975Z,22.73
2023-02-06T01:34:13.484Z,19.70
2023-02-06T01:36:40.914Z,20.47
2023-02-06T01:39:08.812Z,20.00
2023-02-06T01:41:36.253Z,20.33
2023-02-06T01:44:10.520Z,20.33
2023-02-06T01:46:39.033Z,19.00
2023-02-06T01:49:09.119Z,20.63
2023-02-06T01:51:36.533Z,21.87
2023-02-06T01:54:05.950Z,20.40
2023-02-06T01:56:35.439Z,19.07
2023-02-06T01:59:03.122Z,21.03
2023-02-06T02:01:30.876Z,18.73
2023-02-06T02:04:03.286Z,18.50
2023-02-06T02:06:30.970Z,21.87
2023-02-06T02:08:59.361Z,18.73
2023-02-06T02:11:37.214Z,17.93
2023-02-06T02:14:07.081Z,19.37
2023-02-06T02:16:53.060Z,20.10
2023-02-06T02:19:32.595Z,18.47
2023-02-06T02:22:18.793Z,19.57
2023-02-06T02:25:05.046Z,19.17
2023-02-06T02:27:47.663Z,19.33
2023-02-06T02:30:15.153Z,17.17
2023-02-06T02:32:52.974Z,21.30
2023-02-06T02:35:26.376Z,17.67
2023-02-06T02:38:02.571Z,16.97
2023-02-06T02:40:30.395Z,17.20
2023-02-06T02:42:57.974Z,17.50
2023-02-06T02:45:29.159Z,16.90
2023-02-06T02:47:58.878Z,17.57
2023-02-06T02:50:27.105Z,16.70
2023-02-06T02:52:54.716Z,17.40
2023-02-06T02:55:23.441Z,16.27
2023-02-06T02:57:58.738Z,17.97
2023-02-06T03:00:27.134Z,16.67
2023-02-06T03:02:56.358Z,15.83
2023-02-06T03:05:24.776Z,16.27
2023-02-06T03:08:23.922Z,17.40
2023-02-06T03:11:04.001Z,17.20
2023-02-06T03:13:33.117Z,15.77
2023-02-06T03:16:10.210Z,17.57
2023-02-06T03:18:42.194Z,17.40
2023-02-06T03:21:11.673Z,16.17
2023-02-06T03:23:39.759Z,17.07
2023-02-06T03:26:09.063Z,16.97
2023-02-06T03:28:39.160Z,17.20
2023-02-06T03:31:08.402Z,17.07
2023-02-06T03:33:41.427Z,17.73
2023-02-06T03:36:11.151Z,16.40
2023-02-06T03:38:38.520Z,16.47
2023-02-06T03:41:06.566Z,20.60
2023-02-06T03:43:33.986Z,14.80
2023-02-06T03:46:02.805Z,15.20
2023-02-06T03:48:59.742Z,15.67
2023-02-06T03:51:30.740Z,15.00
2023-02-06T03:53:59.451Z,14.70
2023-02-06T03:56:30.985Z,14.10
2023-02-06T03:58:58.370Z,14.80
2023-02-06T04:01:25.948Z,15.67
2023-02-06T04:03:53.640Z,16.57
2023-02-06T04:06:21.378Z,16.70
2023-02-06T04:08:48.796Z,14.97
2023-02-06T04:11:16.134Z,16.07
2023-02-06T04:13:43.440Z,14.77
2023-02-06T04:16:10.811Z,15.47
2023-02-06T04:18:38.120Z,15.83
2023-02-06T04:21:08.571Z,16.53
2023-02-06T04:23:35.907Z,16.27
2023-02-06T04:26:03.270Z,14.07
2023-02-06T04:28:30.720Z,13.80
2023-02-06T04:30:58.183Z,14.13
2023-02-06T04:33:25.654Z,16.10
2023-02-06T04:35:53.072Z,17.27
2023-02-06T04:38:20.421Z,15.03
2023-02-06T04:40:47.866Z,14.90
2023-02-06T04:43:15.179Z,15.57
2023-02-06T04:45:42.693Z,15.43
2023-02-06T04:48:10.044Z,13.90
2023-02-06T04:50:37.422Z,16.70
2023-02-06T04:53:04.790Z,14.40
2023-02-06T04:55:32.164Z,15.17
2023-02-06T04:57:59.524Z,13.80
2023-02-06T05:00:26.852Z,13.87
2023-02-06T05:02:54.404Z,14.30
2023-02-06T05:05:21.818Z,14.60
2023-02-06T05:07:49.225Z,15.87
2023-02-06T05:10:16.589Z,24.55
2023-02-06T05:12:43.929Z,17.13
2023-02-06T05:15:11.341Z,14.63
2023-02-06T05:17:38.702Z,16.80
2023-02-06T05:20:06.632Z,15.63
2023-02-06T05:22:33.985Z,15.77
2023-02-06T05:25:01.552Z,16.43
2023-02-06T05:27:28.942Z,15.87
2023-02-06T05:29:56.439Z,15.63
2023-02-06T05:32:23.855Z,17.37
2023-02-06T05:34:51.209Z,15.70
2023-02-06T05:37:18.580Z,17.67
2023-02-06T05:39:45.923Z,27.48
2023-02-06T05:42:13.242Z,20.00
2023-02-06T05:44:40.640Z,18.70
2023-02-06T05:47:07.995Z,19.07
2023-02-06T05:49:35.294Z,22.23
2023-02-06T05:52:02.693Z,16.83
2023-02-06T05:54:30.038Z,15.97
2023-02-06T05:56:57.934Z,16.00
2023-02-06T05:59:25.421Z,17.93
2023-02-06T06:01:52.797Z,17.20
2023-02-06T06:04:20.183Z,19.87
2023-02-06T06:06:47.628Z,19.00
2023-02-06T06:09:15.076Z,19.33
2023-02-06T06:11:42.496Z,21.27
2023-02-06T06:14:09.892Z,23.03
2023-02-06T06:16:37.298Z,20.67
2023-02-06T06:19:04.785Z,35.13
2023-02-06T06:21:32.182Z,20.77
2023-02-06T06:23:59.525Z,49.80
2023-02-06T06:26:26.898Z,22.17
2023-02-06T06:28:54.215Z,20.07
2023-02-06T06:31:21.736Z,23.43
2023-02-06T06:33:49.139Z,26.93
2023-02-06T06:36:16.551Z,24.57
2023-02-06T06:38:43.873Z,22.57
2023-02-06T06:41:11.357Z,22.33
2023-02-06T06:43:39.518Z,20.80
2023-02-06T06:46:07.018Z,23.90
2023-02-06T06:48:36.473Z,26.77
2023-02-06T06:51:03.820Z,25.80
2023-02-06T06:53:31.178Z,26.47
2023-02-06T06:56:05.417Z,29.30
2023-02-06T06:58:32.873Z,28.13
2023-02-06T07:01:00.348Z,26.93
2023-02-06T07:03:27.712Z,25.33
2023-02-06T07:05:55.077Z,60.37
2023-02-06T07:08:22.462Z,28.73
2023-02-06T07:10:50.008Z,23.47
2023-02-06T07:13:18.478Z,22.50
2023-02-06T07:15:45.807Z,25.27
2023-02-06T07:18:13.168Z,24.20
2023-02-06T07:20:40.654Z,22.47
2023-02-06T07:23:08.060Z,25.43
2023-02-06T07:25:35.770Z,23.77
2023-02-06T07:28:03.556Z,45.17
2023-02-06T07:30:31.000Z,24.13
2023-02-06T07:32:58.323Z,23.80
2023-02-06T07:35:25.687Z,23.73
2023-02-06T07:37:56.197Z,23.33
2023-02-06T07:40:25.173Z,23.70
2023-02-06T07:42:53.594Z,22.07
2023-02-06T07:45:26.933Z,21.93
2023-02-06T07:47:54.489Z,23.37
2023-02-06T07:50:21.845Z,22.93
2023-02-06T07:52:49.320Z,23.23
2023-02-06T07:55:16.810Z,21.77
2023-02-06T07:57:44.142Z,21.70
2023-02-06T08:00:11.890Z,23.10
2023-02-06T08:02:42.226Z,21.80
2023-02-06T08:05:09.758Z,26.50
2023-02-06T08:07:37.105Z,24.40
2023-02-06T08:10:04.597Z,22.33
2023-02-06T08:12:32.170Z,24.37
2023-02-06T08:14:59.544Z,21.17
2023-02-06T08:17:28.020Z,23.53
2023-02-06T08:19:55.693Z,28.43
2023-02-06T08:22:23.113Z,22.70
2023-02-06T08:24:50.505Z,23.00
2023-02-06T08:27:17.850Z,23.23
2023-02-06T08:29:45.251Z,23.10
2023-02-06T08:32:12.709Z,22.77
2023-02-06T08:34:40.469Z,20.80
2023-02-06T08:37:07.901Z,23.03
2023-02-06T08:39:35.255Z,23.47
2023-02-06T08:42:02.746Z,23.07
2023-02-06T08:44:30.123Z,22.03
2023-02-06T08:47:09.294Z,23.03
2023-02-06T08:49:37.311Z,21.93
2023-02-06T08:52:04.748Z,24.37
2023-02-06T08:54:34.893Z,25.37
2023-02-06T08:57:03.221Z,22.90
2023-02-06T08:59:30.997Z,22.77
2023-02-06T09:01:58.662Z,23.13
2023-02-06T09:04:27.452Z,27.00
2023-02-06T09:06:54.867Z,25.17
2023-02-06T09:09:22.230Z,24.03
2023-02-06T09:11:49.673Z,25.50
2023-02-06T09:14:17.966Z,24.17
2023-02-06T09:16:45.686Z,23.07
2023-02-06T09:19:13.192Z,23.77
2023-02-06T09:21:40.732Z,23.40
2023-02-06T09:24:09.085Z,24.33
2023-02-06T09:26:44.786Z,25.67
2023-02-06T09:29:21.110Z,25.67
2023-02-06T09:31:48.582Z,25.00
2023-02-06T09:34:15.976Z,25.23
2023-02-06T09:36:43.543Z,24.10
2023-02-06T09:39:11.123Z,27.77
2023-02-06T09:41:44.663Z,26.20
2023-02-06T09:44:24.322Z,23.37
2023-02-06T09:46:54.821Z,25.13
2023-02-06T09:49:26.176Z,27.00
2023-02-06T09:52:03.925Z,25.13
2023-02-06T09:54:31.271Z,24.33
2023-02-06T09:57:06.133Z,25.77
2023-02-06T09:59:39.901Z,25.67
2023-02-06T10:02:13.278Z,26.67
2023-02-06T10:05:13.026Z,27.17
2023-02-06T10:07:49.646Z,25.30
2023-02-06T10:10:23.324Z,25.43
2023-02-06T10:13:04.149Z,25.80
2023-02-06T10:15:40.785Z,25.10
2023-02-06T10:18:12.483Z,26.33
2023-02-06T10:20:42.243Z,28.50
2023-02-06T10:23:12.961Z,28.33
2023-02-06T10:25:46.068Z,26.83
2023-02-06T10:28:26.912Z,30.07
2023-02-06T10:30:57.121Z,28.90
2023-02-06T10:33:25.944Z,26.27
2023-02-06T10:36:08.614Z,26.13
2023-02-06T10:39:14.745Z,25.90
2023-02-06T10:42:00.762Z,24.00
2023-02-06T10:44:31.426Z,24.93
2023-02-06T10:46:59.113Z,25.43
2023-02-06T10:49:46.748Z,22.27
2023-02-06T10:52:34.575Z,24.67
2023-02-06T10:55:05.787Z,26.13
2023-02-06T10:57:34.612Z,27.47
2023-02-06T11:00:02.834Z,26.30
2023-02-06T11:03:06.262Z,25.00
2023-02-06T11:05:35.353Z,25.30
2023-02-06T11:08:03.199Z,25.43
2023-02-06T11:10:32.199Z,26.90
2023-02-06T11:13:01.622Z,25.40
2023-02-06T11:15:32.832Z,24.60
2023-02-06T11:18:03.946Z,25.83
2023-02-06T11:20:34.551Z,25.67
2023-02-06T11:23:15.613Z,24.70
2023-02-06T11:25:43.406Z,25.67
2023-02-06T11:28:18.970Z,24.93
2023-02-06T11:30:57.633Z,24.67
2023-02-06T11:33:41.216Z,25.00
2023-02-06T11:36:21.055Z,23.53
2023-02-06T11:38:55.483Z,23.57
2023-02-06T11:41:22.873Z,21.73
2023-02-06T11:43:51.336Z,21.37
2023-02-06T11:46:20.323Z,20.47
2023-02-06T11:48:58.633Z,20.17
2023-02-06T11:51:26.497Z,19.93
2023-02-06T11:53:58.212Z,20.17
2023-02-06T11:56:25.737Z,19.87
2023-02-06T11:59:17.897Z,19.80
2023-02-06T12:01:46.418Z,21.83
2023-02-06T12:04:34.024Z,21.00
2023-02-06T12:07:13.545Z,20.50
2023-02-06T12:09:41.028Z,19.73
2023-02-06T12:12:18.224Z,19.47
2023-02-06T12:14:56.143Z,21.30
2023-02-06T12:17:26.219Z,19.03
2023-02-06T12:20:20.487Z,18.53
2023-02-06T12:23:11.140Z,18.83
2023-02-06T12:25:43.140Z,19.60
2023-02-06T12:28:10.624Z,17.03
2023-02-06T12:30:48.512Z,18.17
2023-02-06T12:33:18.949Z,19.77
2023-02-06T12:35:52.746Z,20.33
2023-02-06T12:38:26.206Z,21.90
2023-02-06T12:41:03.189Z,20.87
2023-02-06T12:43:33.532Z,20.80
2023-02-06T12:46:07.627Z,20.77
2023-02-06T12:48:35.511Z,18.23
2023-02-06T12:51:08.517Z,17.93
2023-02-06T12:53:35.873Z,19.83
2023-02-06T12:56:06.675Z,18.47
2023-02-06T12:58:43.058Z,19.43
2023-02-06T13:01:28.868Z,20.90
2023-02-06T13:04:04.401Z,19.27
2023-02-06T13:06:54.887Z,18.70
2023-02-06T13:09:30.614Z,19.23
2023-02-06T13:12:07.321Z,19.80
2023-02-06T13:14:35.849Z,19.53
2023-02-06T13:17:11.840Z,17.73
2023-02-06T13:19:42.076Z,19.17
2023-02-06T13:22:13.605Z,17.80
2023-02-06T13:24:41.987Z,16.77
2023-02-06T13:27:09.365Z,18.23
2023-02-06T13:29:38.558Z,17.93
2023-02-06T13:32:22.677Z,17.87
2023-02-06T13:34:50.530Z,21.80
2023-02-06T13:37:35.501Z,16.80
2023-02-06T13:40:22.090Z,17.73
2023-02-06T13:42:55.882Z,17.00
2023-02-06T13:45:35.620Z,13.80
2023-02-06T13:48:28.758Z,14.23
2023-02-06T13:50:59.316Z,13.23
2023-02-06T13:53:32.715Z,13.93
2023-02-06T13:56:18.501Z,13.20
2023-02-06T13:58:57.530Z,11.90
2023-02-06T14:01:34.291Z,11.97
2023-02-06T14:04:02.024Z,10.73
2023-02-06T14:06:48.180Z,10.80
2023-02-06T14:09:43.993Z,6.23
2023-02-06T14:12:36.533Z,8.23
2023-02-06T14:15:12.990Z,7.87
2023-02-06T14:17:48.483Z,7.93
2023-02-06T14:20:15.895Z,9.50
2023-02-06T14:23:05.729Z,8.93
2023-02-06T14:25:53.496Z,8.87
2023-02-06T14:28:33.379Z,8.60
2023-02-06T14:31:18.990Z,8.83
2023-02-06T14:34:09.116Z,8.77
2023-02-06T14:36:55.229Z,8.13
2023-02-06T14:39:34.652Z,8.80
2023-02-06T14:42:12.733Z,9.40
2023-02-06T14:44:42.407Z,9.80
2023-02-06T14:47:19.356Z,8.77
2023-02-06T14:49:48.563Z,10.10
2023-02-06T14:52:26.958Z,8.83
2023-02-06T14:54:54.400Z,11.80
2023-02-06T14:57:26.163Z,10.40
2023-02-06T14:59:58.222Z,10.47
2023-02-06T15:02:28.700Z,10.40
2023-02-06T15:04:56.523Z,11.73
2023-02-06T15:07:34.393Z,10.80
2023-02-06T15:10:10.513Z,11.10
2023-02-06T15:12:38.859Z,10.97
2023-02-06T15:15:15.473Z,10.57
2023-02-06T15:17:43.805Z,10.93
2023-02-06T15:20:15.564Z,12.03
2023-02-06T15:22:42.932Z,10.73
2023-02-06T15:25:28.799Z,12.67
2023-02-06T15:28:06.575Z,11.33
2023-02-06T15:30:35.462Z,11.67
2023-02-06T15:33:03.465Z,10.90
2023-02-06T15:35:39.102Z,11.47
2023-02-06T15:38:08.214Z,11.47
2023-02-06T15:40:38.993Z,12.23
2023-02-06T15:43:06.758Z,12.53
2023-02-06T15:45:38.088Z,12.03
2023-02-06T15:48:17.722Z,12.70
2023-02-06T15:51:15.865Z,15.73
2023-02-06T15:53:44.038Z,12.07
2023-02-06T15:56:17.351Z,12.50
2023-02-06T15:58:44.700Z,11.80
2023-02-06T16:01:19.749Z,14.07
2023-02-06T16:03:50.843Z,12.47
2023-02-06T16:06:18.366Z,12.73
2023-02-06T16:08:53.349Z,14.47
2023-02-06T16:11:39.629Z,12.83
2023-02-06T16:14:07.390Z,14.30
2023-02-06T16:16:34.863Z,15.17
2023-02-06T16:19:02.252Z,15.70
2023-02-06T16:21:30.925Z,12.90
2023-02-06T16:24:04.514Z,13.93
2023-02-06T16:26:52.500Z,12.30
2023-02-06T16:29:27.337Z,14.40
2023-02-06T16:32:01.804Z,13.87
2023-02-06T16:34:37.482Z,12.87
2023-02-06T16:37:11.921Z,12.27
2023-02-06T16:39:42.247Z,13.47
2023-02-06T16:42:17.329Z,12.23
2023-02-06T16:44:48.758Z,12.93
2023-02-06T16:47:18.433Z,11.93
2023-02-06T16:49:49.736Z,12.20
2023-02-06T16:52:25.993Z,12.83
2023-02-06T16:54:55.919Z,12.37
2023-02-06T16:57:25.164Z,11.10
2023-02-06T16:59:52.609Z,12.20
2023-02-06T17:02:19.966Z,12.67
2023-02-06T17:04:47.733Z,14.87
2023-02-06T17:07:16.763Z,12.93
2023-02-06T17:09:44.743Z,14.77
2023-02-06T17:12:16.627Z,12.73
2023-02-06T17:14:44.388Z,13.53
2023-02-06T17:17:13.121Z,14.60
2023-02-06T17:19:41.099Z,15.50
2023-02-06T17:22:09.004Z,14.63
2023-02-06T17:24:36.863Z,15.43
2023-02-06T17:27:05.355Z,14.80
2023-02-06T17:29:33.107Z,14.77
2023-02-06T17:32:01.065Z,16.53
2023-02-06T17:34:30.108Z,15.50
2023-02-06T17:36:57.823Z,15.03
2023-02-06T17:39:25.698Z,17.07
2023-02-06T17:41:53.489Z,18.10
2023-02-06T17:44:20.969Z,16.77
2023-02-06T17:46:49.704Z,16.80
2023-02-06T17:49:17.680Z,19.00
2023-02-06T17:51:45.736Z,18.97
2023-02-06T17:54:13.642Z,19.23
2023-02-06T17:56:41.034Z,17.63
2023-02-06T17:59:08.421Z,18.97
2023-02-06T18:01:35.833Z,16.17
2023-02-06T18:04:03.820Z,14.47
2023-02-06T18:06:36.336Z,15.30
2023-02-06T18:09:04.068Z,15.83
2023-02-06T18:11:31.725Z,15.80
2023-02-06T18:13:59.510Z,15.53
2023-02-06T18:16:27.817Z,17.33
2023-02-06T18:18:55.567Z,15.73
2023-02-06T18:21:24.508Z,18.63
2023-02-06T18:23:53.149Z,18.20
2023-02-06T18:26:20.568Z,18.67
2023-02-06T18:28:48.005Z,19.90
2023-02-06T18:31:25.738Z,18.60
2023-02-06T18:33:53.526Z,21.13
2023-02-06T18:36:22.641Z,19.60
2023-02-06T18:38:50.111Z,16.73
2023-02-06T18:41:36.862Z,17.60
2023-02-06T18:44:05.745Z,18.97
2023-02-06T18:46:33.294Z,20.50
2023-02-06T18:49:01.026Z,19.30
2023-02-06T18:51:30.714Z,20.60
2023-02-06T18:53:58.944Z,19.73
2023-02-06T18:56:26.398Z,21.63
2023-02-06T18:58:53.954Z,19.23
2023-02-06T19:01:23.187Z,19.90
2023-02-06T19:03:51.503Z,20.37
2023-02-06T19:06:24.288Z,19.00
2023-02-06T19:08:51.813Z,19.43
2023-02-06T19:11:19.183Z,20.90
2023-02-06T19:13:46.575Z,19.63
2023-02-06T19:16:15.021Z,20.07
2023-02-06T19:18:43.054Z,19.90
2023-02-06T19:21:11.964Z,21.27
2023-02-06T19:23:40.101Z,20.70
2023-02-06T19:26:11.550Z,19.37
2023-02-06T19:28:39.567Z,18.50
2023-02-06T19:31:07.566Z,19.13
2023-02-06T19:33:36.130Z,19.13
2023-02-06T19:36:07.443Z,19.07
2023-02-06T19:38:35.201Z,17.77
2023-02-06T19:41:09.642Z,17.37
2023-02-06T19:43:37.214Z,17.10
2023-02-06T19:46:05.639Z,14.70
2023-02-06T19:48:32.997Z,15.73
2023-02-06T19:51:07.484Z,16.63
2023-02-06T19:53:35.433Z,16.63
2023-02-06T19:56:03.450Z,23.07
2023-02-06T19:58:31.910Z,17.83
2023-02-06T20:00:59.984Z,17.63
2023-02-06T20:03:27.331Z,15.10
2023-02-06T20:05:54.761Z,16.93
2023-02-06T20:08:22.121Z,17.03
2023-02-06T20:10:49.459Z,15.43
2023-02-06T20:13:16.759Z,19.43
2023-02-06T20:15:44.210Z,18.33
2023-02-06T20:18:12.259Z,24.27
2023-02-06T20:20:39.887Z,19.67
2023-02-06T20:23:07.280Z,17.63
2023-02-06T20:25:38.171Z,16.30
2023-02-06T20:28:05.770Z,16.27
2023-02-06T20:30:33.218Z,17.40
2023-02-06T20:33:00.670Z,22.73
2023-02-06T20:35:28.006Z,35.85
2023-02-06T20:37:55.274Z,26.87
2023-02-06T20:40:23.206Z,24.80
2023-02-06T20:42:50.497Z,20.67
2023-02-06T20:45:18.141Z,20.97
2023-02-06T20:47:45.431Z,22.20
2023-02-06T20:50:13.580Z,23.27
2023-02-06T20:52:40.941Z,25.57
2023-02-06T20:55:08.647Z,23.37
2023-02-06T20:57:36.406Z,22.63
2023-02-06T21:00:07.189Z,19.90
2023-02-06T21:02:34.886Z,19.27
2023-02-06T21:05:02.367Z,19.00
2023-02-06T21:07:30.278Z,18.80
2023-02-06T21:09:57.719Z,19.40
2023-02-06T21:12:25.122Z,20.30
2023-02-06T21:14:52.597Z,19.53
2023-02-06T21:17:19.959Z,20.83
2023-02-06T21:19:47.365Z,22.37
2023-02-06T21:22:14.736Z,21.47
2023-02-06T21:24:42.124Z,20.07
2023-02-06T21:27:09.531Z,23.53
2023-02-06T21:29:36.839Z,21.53
2023-02-06T21:32:13.555Z,21.60
2023-02-06T21:34:41.578Z,19.93
2023-02-06T21:37:09.462Z,23.87
2023-02-06T21:39:38.787Z,24.43
2023-02-06T21:42:06.238Z,21.67
2023-02-06T21:44:33.573Z,21.53
2023-02-06T21:47:00.911Z,25.63
2023-02-06T21:49:28.237Z,24.10
2023-02-06T21:51:58.500Z,19.70
2023-02-06T21:54:58.791Z,23.07
2023-02-06T21:57:26.325Z,21.63
2023-02-06T21:59:53.879Z,24.67
2023-02-06T22:02:21.482Z,22.70
2023-02-06T22:04:48.768Z,25.13
2023-02-06T22:07:16.512Z,25.33
2023-02-06T22:09:43.854Z,25.00
2023-02-06T22:12:11.139Z,24.33
2023-02-06T22:14:39.470Z,22.20
2023-02-06T22:17:06.985Z,22.03
2023-02-06T22:19:35.027Z,21.67
2023-02-06T22:22:02.530Z,24.33
2023-02-06T22:24:30.070Z,24.10
2023-02-06T22:26:57.286Z,22.73
2023-02-06T22:29:25.170Z,23.57
2023-02-06T22:31:52.614Z,20.63
2023-02-06T22:34:21.396Z,20.97
2023-02-06T22:36:55.192Z,20.00
2023-02-06T22:39:22.661Z,23.07
2023-02-06T22:41:50.226Z,24.40
2023-02-06T22:44:18.275Z,24.77
2023-02-06T22:46:49.920Z,23.20
2023-02-06T22:49:17.491Z,20.93
2023-02-06T22:51:45.432Z,23.00
2023-02-06T22:54:13.365Z,22.10
2023-02-06T22:56:42.307Z,24.53
2023-02-06T22:59:14.321Z,23.20
2023-02-06T23:01:42.821Z,23.43
2023-02-06T23:04:20.812Z,23.57
2023-02-06T23:06:48.785Z,24.03
2023-02-06T23:09:18.492Z,24.10
2023-02-06T23:11:46.278Z,24.23
2023-02-06T23:14:14.599Z,23.03
2023-02-06T23:16:42.337Z,23.00
2023-02-06T23:19:10.127Z,25.47
2023-02-06T23:21:38.691Z,24.53
2023-02-06T23:24:07.443Z,24.90
2023-02-06T23:26:35.409Z,24.53
2023-02-06T23:29:04.216Z,25.50
2023-02-06T23:31:31.803Z,27.23
2023-02-06T23:33:59.190Z,25.77
2023-02-06T23:36:27.628Z,26.90
2023-02-06T23:38:55.677Z,26.93
2023-02-06T23:41:27.150Z,27.97
2023-02-06T23:43:55.927Z,24.67
2023-02-06T23:46:23.934Z,25.43
2023-02-06T23:48:51.629Z,24.10
2023-02-06T23:51:20.473Z,25.67
2023-02-06T23:53:48.498Z,25.20
2023-02-06T23:56:17.001Z,23.60
2023-02-06T23:58:44.427Z,24.33
